createdAt,value
2022-12-19T00:00:07.647Z,97044.22
2022-12-19T00:02:39.499Z,97049.59
2022-12-19T00:05:06.967Z,97053.34
2022-12-19T00:07:33.839Z,97056.56
2022-12-19T00:10:00.614Z,97047.56
2022-12-19T00:12:27.499Z,97033.50
2022-12-19T00:14:54.400Z,97030.22
2022-12-19T00:17:21.937Z,97024.44
2022-12-19T00:19:48.843Z,97024.34
2022-12-19T00:22:15.526Z,97014.78
2022-12-19T00:24:42.238Z,97014.44
2022-12-19T00:27:08.915Z,97020.00
2022-12-19T00:29:35.709Z,96996.03
2022-12-19T00:32:03.426Z,96974.78
2022-12-19T00:34:30.221Z,96980.53
2022-12-19T00:36:56.929Z,96973.47
2022-12-19T00:39:23.687Z,96944.19
2022-12-19T00:41:50.388Z,96970.44
2022-12-19T00:44:17.177Z,96994.97
2022-12-19T00:46:50.262Z,97002.75
2022-12-19T00:49:19.801Z,97017.22
2022-12-19T00:51:46.927Z,97040.03
2022-12-19T00:54:13.754Z,97034.75
2022-12-19T00:56:41.788Z,97034.06
2022-12-19T00:59:10.744Z,97027.91
2022-12-19T01:01:41.621Z,97035.47
2022-12-19T01:04:30.740Z,97016.97
2022-12-19T01:07:02.375Z,97013.47
2022-12-19T01:09:35.166Z,97007.56
2022-12-19T01:12:23.129Z,97014.31
2022-12-19T01:14:54.325Z,96996.63
2022-12-19T01:17:23.926Z,96988.28
2022-12-19T01:19:52.882Z,96990.28
2022-12-19T01:22:19.595Z,96984.44
2022-12-19T01:24:46.312Z,96983.66
2022-12-19T01:27:15.307Z,96992.72
2022-12-19T01:29:49.093Z,96966.19
2022-12-19T01:32:20.429Z,96980.00
2022-12-19T01:34:47.135Z,96990.66
2022-12-19T01:37:14.027Z,96980.59
2022-12-19T01:39:44.876Z,96994.75
2022-12-19T01:42:22.346Z,96997.44
2022-12-19T01:45:05.652Z,97013.88
2022-12-19T01:47:36.281Z,97014.97
2022-12-19T01:50:03.852Z,97029.78
2022-12-19T01:52:30.633Z,97017.47
2022-12-19T01:55:01.339Z,97042.91
2022-12-19T01:57:28.016Z,97030.16
2022-12-19T01:59:59.377Z,97023.66
2022-12-19T02:02:33.293Z,97025.06
2022-12-19T02:05:01.745Z,97012.97
2022-12-19T02:07:28.573Z,97027.88
2022-12-19T02:09:56.977Z,97035.19
2022-12-19T02:12:32.998Z,97037.19
2022-12-19T02:15:03.042Z,97032.09
2022-12-19T02:17:57.835Z,97024.53
2022-12-19T02:20:25.109Z,97031.56
2022-12-19T02:23:00.970Z,97036.56
2022-12-19T02:25:52.009Z,97030.22
2022-12-19T02:28:45.728Z,97033.00
2022-12-19T02:31:25.865Z,97017.69
2022-12-19T02:34:03.322Z,97040.41
2022-12-19T02:36:43.592Z,97048.59
2022-12-19T02:39:20.723Z,97038.13
2022-12-19T02:41:53.378Z,97023.31
2022-12-19T02:44:26.748Z,97048.47
2022-12-19T02:46:54.773Z,97027.41
2022-12-19T02:49:30.679Z,97038.56
2022-12-19T02:52:08.345Z,97057.59
2022-12-19T02:54:35.103Z,97070.91
2022-12-19T02:57:16.249Z,97051.38
2022-12-19T03:00:03.060Z,97051.69
2022-12-19T03:03:01.183Z,97056.38
2022-12-19T03:05:40.410Z,97056.91
2022-12-19T03:08:19.252Z,97069.56
2022-12-19T03:10:55.464Z,97067.31
2022-12-19T03:13:30.369Z,97053.88
2022-12-19T03:15:58.896Z,97060.63
2022-12-19T03:18:26.500Z,97064.38
2022-12-19T03:21:07.005Z,97056.84
2022-12-19T03:23:34.141Z,97072.19
2022-12-19T03:26:18.625Z,97072.19
2022-12-19T03:28:54.214Z,97062.91
2022-12-19T03:31:24.870Z,97063.63
2022-12-19T03:33:56.857Z,97073.00
2022-12-19T03:36:32.950Z,97066.38
2022-12-19T03:39:04.268Z,97062.63
2022-12-19T03:41:49.938Z,97079.28
2022-12-19T03:44:19.245Z,97080.97
2022-12-19T03:46:51.903Z,97095.66
2022-12-19T03:49:18.721Z,97081.16
2022-12-19T03:52:03.475Z,97107.72
2022-12-19T03:54:44.501Z,97077.72
2022-12-19T03:57:30.758Z,97096.25
2022-12-19T04:00:06.295Z,97053.13
2022-12-19T04:02:42.723Z,97048.69
2022-12-19T04:05:13.049Z,97066.97
2022-12-19T04:07:41.216Z,97085.72
2022-12-19T04:10:12.024Z,97083.16
2022-12-19T04:12:42.977Z,97046.63
2022-12-19T04:15:10.250Z,97031.16
2022-12-19T04:17:45.006Z,97029.88
2022-12-19T04:20:15.628Z,97126.16
2022-12-19T04:22:49.806Z,97073.72
2022-12-19T04:25:20.098Z,97087.03
2022-12-19T04:27:52.280Z,97140.06
2022-12-19T04:30:19.800Z,97075.47
2022-12-19T04:32:47.822Z,97100.56
2022-12-19T04:35:14.873Z,97105.00
2022-12-19T04:37:42.053Z,97101.75
2022-12-19T04:40:11.022Z,97090.56
2022-12-19T04:42:37.777Z,97099.84
2022-12-19T04:45:06.017Z,97098.69
2022-12-19T04:47:32.914Z,97060.38
2022-12-19T04:49:59.675Z,97045.63
2022-12-19T04:52:26.578Z,97065.16
2022-12-19T04:54:53.218Z,97071.50
2022-12-19T04:57:19.963Z,97062.91
2022-12-19T04:59:46.700Z,97048.59
2022-12-19T05:02:13.545Z,97045.56
2022-12-19T05:04:40.286Z,97024.34
2022-12-19T05:07:07.015Z,97087.53
2022-12-19T05:09:34.140Z,97059.09
2022-12-19T05:12:00.867Z,97059.38
2022-12-19T05:14:27.850Z,97077.88
2022-12-19T05:17:00.367Z,97057.81
2022-12-19T05:19:28.145Z,97083.44
2022-12-19T05:21:54.975Z,97078.88
2022-12-19T05:24:22.184Z,97073.97
2022-12-19T05:26:49.772Z,97076.75
2022-12-19T05:29:17.304Z,97051.47
2022-12-19T05:31:44.291Z,97077.75
2022-12-19T05:34:11.190Z,97062.63
2022-12-19T05:36:38.043Z,97089.63
2022-12-19T05:39:04.819Z,97124.63
2022-12-19T05:41:31.544Z,97093.59
2022-12-19T05:43:58.258Z,97104.72
2022-12-19T05:46:25.654Z,97135.88
2022-12-19T05:49:11.105Z,97072.50
2022-12-19T05:51:57.043Z,97075.19
2022-12-19T05:54:24.497Z,97076.03
2022-12-19T05:56:51.167Z,97082.59
2022-12-19T05:59:17.976Z,97091.66
2022-12-19T06:01:44.833Z,97069.78
2022-12-19T06:04:11.584Z,97075.59
2022-12-19T06:06:38.276Z,97067.81
2022-12-19T06:09:05.079Z,97050.31
2022-12-19T06:11:31.783Z,97063.59
2022-12-19T06:13:58.548Z,97033.63
2022-12-19T06:16:26.396Z,97043.38
2022-12-19T06:18:53.155Z,97070.63
2022-12-19T06:21:21.902Z,97067.75
2022-12-19T06:23:49.153Z,97084.28
2022-12-19T06:26:20.300Z,97082.47
2022-12-19T06:28:52.201Z,97079.34
2022-12-19T06:31:20.926Z,97075.97
2022-12-19T06:33:48.019Z,97083.88
2022-12-19T06:36:19.343Z,97057.41
2022-12-19T06:38:46.551Z,97076.28
2022-12-19T06:41:32.650Z,97074.00
2022-12-19T06:44:00.628Z,97095.59
2022-12-19T06:46:27.674Z,97075.50
2022-12-19T06:48:54.668Z,97080.81
2022-12-19T06:51:21.739Z,97083.09
2022-12-19T06:53:48.830Z,97074.47
2022-12-19T06:56:16.507Z,97066.31
2022-12-19T06:58:43.285Z,97044.78
2022-12-19T07:01:45.490Z,97072.25
2022-12-19T07:04:16.541Z,97063.66
2022-12-19T07:06:48.723Z,97091.06
2022-12-19T07:09:15.930Z,97072.81
2022-12-19T07:11:42.595Z,97062.59
2022-12-19T07:14:09.352Z,97068.56
2022-12-19T07:16:37.955Z,97074.44
2022-12-19T07:19:06.075Z,97076.09
2022-12-19T07:21:36.083Z,97075.03
2022-12-19T07:24:03.911Z,97067.03
2022-12-19T07:26:30.795Z,97040.47
2022-12-19T07:28:58.929Z,97077.31
2022-12-19T07:31:25.696Z,97094.66
2022-12-19T07:33:52.412Z,97091.34
2022-12-19T07:36:19.090Z,97075.19
2022-12-19T07:38:45.851Z,97098.44
2022-12-19T07:41:12.603Z,97082.94
2022-12-19T07:43:39.881Z,97080.44
2022-12-19T07:46:06.585Z,97075.25
2022-12-19T07:48:33.350Z,97063.63
2022-12-19T07:51:00.117Z,97076.09
2022-12-19T07:53:27.969Z,97102.38
2022-12-19T07:55:54.737Z,97080.63
2022-12-19T07:58:21.560Z,97096.25
2022-12-19T08:01:00.976Z,97092.84
2022-12-19T08:03:28.637Z,97069.88
2022-12-19T08:06:06.869Z,97080.78
2022-12-19T08:08:37.870Z,97087.91
2022-12-19T08:11:13.291Z,97102.72
2022-12-19T08:13:46.261Z,97091.59
2022-12-19T08:16:14.059Z,97078.66
2022-12-19T08:18:40.743Z,97084.69
2022-12-19T08:21:09.009Z,97089.22
2022-12-19T08:23:35.866Z,97078.00
2022-12-19T08:26:06.870Z,97078.22
2022-12-19T08:28:35.563Z,97070.06
2022-12-19T08:31:15.747Z,97068.78
2022-12-19T08:33:43.574Z,97065.44
2022-12-19T08:36:13.187Z,97058.22
2022-12-19T08:38:40.537Z,97055.66
2022-12-19T08:41:07.798Z,97046.06
2022-12-19T08:43:34.949Z,97049.44
2022-12-19T08:46:02.268Z,97041.03
2022-12-19T08:48:29.113Z,97029.63
2022-12-19T08:50:58.355Z,97046.19
2022-12-19T08:53:27.527Z,97041.47
2022-12-19T08:55:59.345Z,97046.94
2022-12-19T08:58:28.812Z,97056.00
2022-12-19T09:01:05.192Z,97048.25
2022-12-19T09:03:54.611Z,97025.50
2022-12-19T09:06:20.256Z,97012.69
2022-12-19T09:08:47.438Z,97016.84
2022-12-19T09:11:16.731Z,97008.25
2022-12-19T09:13:45.000Z,97004.47
2022-12-19T09:16:17.931Z,96988.06
2022-12-19T09:18:48.642Z,96986.97
2022-12-19T09:21:16.693Z,96992.25
2022-12-19T09:23:47.532Z,97003.88
2022-12-19T09:26:15.399Z,97014.94
2022-12-19T09:28:42.421Z,97012.81
2022-12-19T09:31:12.615Z,97007.41
2022-12-19T09:33:43.594Z,97023.75
2022-12-19T09:36:23.128Z,97030.31
2022-12-19T09:38:51.024Z,97028.34
2022-12-19T09:41:49.605Z,97031.03
2022-12-19T09:44:45.699Z,97028.31
2022-12-19T09:47:19.877Z,97027.94
2022-12-19T09:49:48.347Z,97025.75
2022-12-19T09:52:21.647Z,97034.78
2022-12-19T09:55:17.482Z,97027.56
2022-12-19T09:57:59.058Z,97032.06
2022-12-19T10:00:33.881Z,97025.78
2022-12-19T10:03:07.856Z,97015.13
2022-12-19T10:06:35.732Z,97021.19
2022-12-19T10:08:45.384Z,97001.53
2022-12-19T10:12:42.162Z,97000.84
2022-12-19T10:14:52.386Z,97011.94
2022-12-19T10:17:30.351Z,97005.22
2022-12-19T10:19:56.992Z,97010.69
2022-12-19T10:22:30.466Z,97013.72
2022-12-19T10:25:34.089Z,97005.69
2022-12-19T10:28:09.462Z,97020.53
2022-12-19T10:30:44.865Z,97011.78
2022-12-19T10:33:29.985Z,97016.69
2022-12-19T10:36:01.969Z,96994.56
2022-12-19T10:38:36.055Z,97006.97
2022-12-19T10:41:30.395Z,96994.84
2022-12-19T10:44:07.318Z,96986.06
2022-12-19T10:46:46.298Z,96994.34
2022-12-19T10:49:18.718Z,96983.84
2022-12-19T10:51:56.118Z,96969.09
2022-12-19T10:54:27.585Z,96959.56
2022-12-19T10:57:23.823Z,96950.00
2022-12-19T11:00:16.251Z,96947.41
2022-12-19T11:02:47.316Z,96943.66
2022-12-19T11:08:49.192Z,96910.91
2022-12-19T11:14:15.197Z,96898.34
2022-12-19T11:19:21.789Z,96908.69
2022-12-19T11:21:28.369Z,96903.47
2022-12-19T11:29:36.396Z,96916.59
2022-12-19T11:29:54.949Z,96916.22
2022-12-19T11:30:09.321Z,96916.78
2022-12-19T11:30:49.025Z,96916.78
2022-12-19T11:34:28.873Z,96904.63
2022-12-19T11:37:17.492Z,96901.81
2022-12-19T11:39:58.387Z,96898.66
2022-12-19T11:42:37.641Z,96887.78
2022-12-19T11:45:35.131Z,96889.06
2022-12-19T11:48:10.586Z,96886.66
2022-12-19T11:50:55.771Z,96884.97
2022-12-19T11:53:29.255Z,96896.41
2022-12-19T11:56:03.642Z,96895.28
2022-12-19T11:58:30.303Z,96904.28
2022-12-19T12:01:06.072Z,96901.28
2022-12-19T12:04:10.092Z,96910.66
2022-12-19T12:06:57.594Z,96913.88
2022-12-19T12:13:16.079Z,96902.97
2022-12-19T12:21:55.167Z,96893.22
2022-12-19T12:31:18.381Z,96901.84
2022-12-19T12:31:26.255Z,96872.75
2022-12-19T12:31:27.851Z,96898.47
2022-12-19T12:31:44.955Z,96883.44
2022-12-19T12:31:47.729Z,96870.69
2022-12-19T12:35:43.566Z,96878.19
2022-12-19T12:38:28.454Z,96889.06
2022-12-19T12:41:18.858Z,96874.81
2022-12-19T12:43:57.637Z,96886.81
2022-12-19T12:46:28.657Z,96886.44
2022-12-19T12:49:06.423Z,96873.09
2022-12-19T12:51:34.857Z,96869.75
2022-12-19T12:54:12.131Z,96870.28
2022-12-19T12:56:40.251Z,96866.88
2022-12-19T12:59:21.221Z,96875.50
2022-12-19T13:01:55.665Z,96855.97
2022-12-19T13:04:30.415Z,96858.97
2022-12-19T13:07:28.915Z,96864.44
2022-12-19T13:10:15.267Z,96870.78
2022-12-19T13:13:14.514Z,96873.59
2022-12-19T13:15:44.390Z,96869.28
2022-12-19T13:18:31.366Z,96875.69
2022-12-19T13:20:59.490Z,96867.06
2022-12-19T13:23:29.208Z,96866.47
2022-12-19T13:25:56.574Z,96868.56
2022-12-19T13:28:23.195Z,96865.91
2022-12-19T13:31:19.607Z,96857.28
2022-12-19T13:33:55.954Z,96853.53
2022-12-19T13:39:26.270Z,96843.75
2022-12-19T13:40:12.187Z,96840.03
2022-12-19T13:43:14.328Z,96840.75
2022-12-19T13:45:54.908Z,96825.38
2022-12-19T13:48:56.804Z,96818.41
2022-12-19T13:51:23.507Z,96814.50
2022-12-19T13:53:59.606Z,96816.72
2022-12-19T13:56:30.974Z,96823.09
2022-12-19T13:59:01.281Z,96827.41
2022-12-19T14:01:33.561Z,96835.66
2022-12-19T14:04:08.197Z,96835.66
2022-12-19T14:06:44.689Z,96833.81
2022-12-19T14:11:26.544Z,96843.94
2022-12-19T14:14:00.504Z,96849.75
2022-12-19T14:15:32.796Z,96853.31
2022-12-19T14:18:29.984Z,96856.31
2022-12-19T14:22:05.553Z,96863.28
2022-12-19T14:23:42.938Z,96853.31
2022-12-19T14:28:20.448Z,96864.75
2022-12-19T14:29:12.339Z,96878.50
2022-12-19T14:31:58.336Z,96881.31
2022-12-19T14:36:08.487Z,96878.50
2022-12-19T14:38:03.871Z,96883.72
2022-12-19T14:40:29.139Z,96876.59
2022-12-19T14:43:59.668Z,96870.41
2022-12-19T14:53:08.509Z,96867.00
2022-12-19T14:54:20.627Z,96869.09
2022-12-19T14:54:30.697Z,96867.00
2022-12-19T14:56:00.471Z,96857.63
2022-12-19T14:58:54.513Z,96861.38
2022-12-19T15:01:09.182Z,96866.09
2022-12-19T15:04:33.836Z,96849.19
2022-12-19T15:07:09.670Z,96849.00
2022-12-19T15:11:02.372Z,96841.72
2022-12-19T15:14:03.904Z,96840.38
2022-12-19T15:15:54.736Z,96838.13
2022-12-19T15:18:33.664Z,96839.63
2022-12-19T15:21:05.658Z,96838.31
2022-12-19T15:23:32.838Z,96836.66
2022-12-19T15:26:11.343Z,96841.13
2022-12-19T15:28:50.204Z,96841.13
2022-12-19T15:31:33.073Z,96843.75
2022-12-19T15:36:48.425Z,96843.97
2022-12-19T15:39:15.600Z,96848.13
2022-12-19T15:41:43.017Z,96853.38
2022-12-19T15:44:24.678Z,96864.84
2022-12-19T15:46:51.469Z,96856.97
2022-12-19T15:49:20.456Z,96861.28
2022-12-19T15:51:47.610Z,96854.16
2022-12-19T15:54:47.279Z,96858.47
2022-12-19T15:57:01.731Z,96859.97
2022-12-19T15:59:38.152Z,96849.44
2022-12-19T16:02:21.943Z,96858.28
2022-12-19T16:04:50.730Z,96845.72
2022-12-19T16:07:23.105Z,96856.56
2022-12-19T16:09:50.310Z,96850.81
2022-12-19T16:12:20.655Z,96856.22
2022-12-19T16:14:54.625Z,96853.25
2022-12-19T16:17:24.485Z,96841.22
2022-12-19T16:19:51.707Z,96852.28
2022-12-19T16:22:26.623Z,96850.97
2022-12-19T16:24:54.279Z,96860.19
2022-12-19T16:27:27.804Z,96860.56
2022-12-19T16:29:55.634Z,96868.63
2022-12-19T16:32:24.498Z,96878.56
2022-12-19T16:34:52.943Z,96875.56
2022-12-19T16:37:19.954Z,96879.53
2022-12-19T16:39:46.694Z,96877.66
2022-12-19T16:42:16.809Z,96884.00
2022-12-19T16:44:48.013Z,96889.47
2022-12-19T16:47:17.679Z,96872.38
2022-12-19T16:49:44.989Z,96846.34
2022-12-19T16:52:12.314Z,96872.19
2022-12-19T16:54:39.709Z,96885.72
2022-12-19T16:57:15.861Z,96871.84
2022-12-19T16:59:42.596Z,96874.81
2022-12-19T17:02:21.355Z,96868.28
2022-12-19T17:04:53.794Z,96868.09
2022-12-19T17:07:20.772Z,96877.47
2022-12-19T17:09:47.420Z,96879.34
2022-12-19T17:12:18.353Z,96874.28
2022-12-19T17:14:45.281Z,96861.13
2022-12-19T17:17:14.751Z,96851.59
2022-12-19T17:19:45.346Z,96874.81
2022-12-19T17:22:14.018Z,96875.19
2022-12-19T17:24:40.882Z,96869.97
2022-12-19T17:27:07.739Z,96869.97
2022-12-19T17:29:34.410Z,96854.97
2022-12-19T17:32:01.954Z,96875.22
2022-12-19T17:34:32.117Z,96859.28
2022-12-19T17:37:00.584Z,96857.19
2022-12-19T17:39:29.611Z,96855.16
2022-12-19T17:41:59.590Z,96854.97
2022-12-19T17:44:26.724Z,96845.22
2022-12-19T17:46:53.686Z,96821.22
2022-12-19T17:49:31.595Z,96854.38
2022-12-19T17:51:59.848Z,96841.28
2022-12-19T17:54:27.425Z,96806.41
2022-12-19T17:56:54.182Z,96825.31
2022-12-19T17:59:21.154Z,96834.91
2022-12-19T18:01:48.261Z,96856.84
2022-12-19T18:04:18.618Z,96845.00
2022-12-19T18:06:46.560Z,96851.03
2022-12-19T18:09:24.807Z,96834.34
2022-12-19T18:11:52.722Z,96822.13
2022-12-19T18:14:20.543Z,96831.69
2022-12-19T18:16:50.403Z,96813.50
2022-12-19T18:19:24.715Z,96817.47
2022-12-19T18:21:51.966Z,96833.72
2022-12-19T18:24:18.737Z,96838.06
2022-12-19T18:26:45.597Z,96829.84
2022-12-19T18:29:12.841Z,96818.97
2022-12-19T18:31:46.279Z,96820.63
2022-12-19T18:34:24.297Z,96824.56
2022-12-19T18:36:52.184Z,96815.94
2022-12-19T18:39:24.256Z,96815.59
2022-12-19T18:41:52.060Z,96803.56
2022-12-19T18:44:19.166Z,96809.38
2022-12-19T18:46:48.565Z,96797.03
2022-12-19T18:49:16.997Z,96796.84
2022-12-19T18:51:44.978Z,96803.56
2022-12-19T18:54:21.947Z,96788.97
2022-12-19T18:56:48.872Z,96784.47
2022-12-19T18:59:15.684Z,96780.53
2022-12-19T19:01:46.716Z,96780.53
2022-12-19T19:04:18.257Z,96794.78
2022-12-19T19:06:51.021Z,96748.31
2022-12-19T19:09:20.193Z,96781.47
2022-12-19T19:11:47.402Z,96782.03
2022-12-19T19:14:14.662Z,96773.44
2022-12-19T19:16:41.676Z,96795.34
2022-12-19T19:19:14.287Z,96787.28
2022-12-19T19:21:41.778Z,96774.16
2022-12-19T19:24:17.116Z,96798.72
2022-12-19T19:26:44.175Z,96788.41
2022-12-19T19:29:13.576Z,96785.97
2022-12-19T19:31:44.726Z,96803.00
2022-12-19T19:34:22.999Z,96768.53
2022-12-19T19:36:54.899Z,96756.91
2022-12-19T19:39:23.056Z,96758.22
2022-12-19T19:41:50.134Z,96760.47
2022-12-19T19:44:17.110Z,96788.19
2022-12-19T19:46:43.876Z,96794.75
2022-12-19T19:49:10.722Z,96780.31
2022-12-19T19:51:37.515Z,96782.97
2022-12-19T19:54:04.817Z,96789.16
2022-12-19T19:56:32.544Z,96786.69
2022-12-19T19:59:00.856Z,96783.69
2022-12-19T20:01:28.013Z,96785.19
2022-12-19T20:03:54.948Z,96783.50
2022-12-19T20:06:22.129Z,96745.84
2022-12-19T20:08:49.673Z,96802.59
2022-12-19T20:11:17.512Z,96771.91
2022-12-19T20:13:44.346Z,96726.34
2022-12-19T20:16:16.145Z,96773.75
2022-12-19T20:18:48.032Z,96762.88
2022-12-19T20:21:15.235Z,96771.34
2022-12-19T20:23:43.474Z,96774.50
2022-12-19T20:26:12.435Z,96758.94
2022-12-19T20:28:47.830Z,96774.69
2022-12-19T20:31:17.757Z,96775.81
2022-12-19T20:33:46.397Z,96753.25
2022-12-19T20:36:13.932Z,96824.88
2022-12-19T20:38:40.850Z,96804.44
2022-12-19T20:41:08.194Z,96727.03
2022-12-19T20:43:37.524Z,96783.66
2022-12-19T20:46:07.827Z,96785.16
2022-12-19T20:48:34.977Z,96775.59
2022-12-19T20:51:02.608Z,96786.28
2022-12-19T20:53:29.473Z,96790.97
2022-12-19T20:56:00.004Z,96791.88
2022-12-19T20:58:28.659Z,96769.03
2022-12-19T21:00:56.867Z,96729.72
2022-12-19T21:03:29.329Z,96777.66
2022-12-19T21:05:57.044Z,96780.09
2022-12-19T21:08:25.621Z,96784.59
2022-12-19T21:10:54.318Z,96787.41
2022-12-19T21:13:22.890Z,96779.50
2022-12-19T21:15:58.874Z,96773.91
2022-12-19T21:18:26.570Z,96772.97
2022-12-19T21:20:53.750Z,96779.69
2022-12-19T21:23:20.967Z,96774.44
2022-12-19T21:25:48.098Z,96764.31
2022-12-19T21:28:15.413Z,96773.31
2022-12-19T21:30:42.289Z,96764.47
2022-12-19T21:33:09.877Z,96768.25
2022-12-19T21:35:38.036Z,96757.56
2022-12-19T21:38:04.844Z,96772.00
2022-12-19T21:40:31.539Z,96748.22
2022-12-19T21:42:58.568Z,96772.78
2022-12-19T21:45:25.507Z,96757.41
2022-12-19T21:47:52.253Z,96735.44
2022-12-19T21:50:19.002Z,96763.78
2022-12-19T21:52:46.752Z,96795.25
2022-12-19T21:55:15.952Z,96769.41
2022-12-19T21:57:42.734Z,96791.47
2022-12-19T22:00:12.231Z,96782.31
2022-12-19T22:02:43.580Z,96782.50
2022-12-19T22:05:17.571Z,96755.69
2022-12-19T22:07:44.381Z,96783.06
2022-12-19T22:10:11.395Z,96759.09
2022-12-19T22:12:38.190Z,96764.75
2022-12-19T22:15:05.300Z,96751.59
2022-12-19T22:17:32.014Z,96770.34
2022-12-19T22:19:58.730Z,96740.41
2022-12-19T22:22:25.423Z,96766.97
2022-12-19T22:24:52.177Z,96708.31
2022-12-19T22:27:19.754Z,96751.63
2022-12-19T22:29:46.556Z,96755.94
2022-12-19T22:32:13.564Z,96749.56
2022-12-19T22:34:40.298Z,96766.25
2022-12-19T22:37:07.043Z,96755.75
2022-12-19T22:39:34.072Z,96734.41
2022-12-19T22:42:01.002Z,96757.44
2022-12-19T22:44:28.249Z,96756.84
2022-12-19T22:46:55.389Z,96749.94
2022-12-19T22:49:22.177Z,96762.50
2022-12-19T22:51:49.520Z,96737.97
2022-12-19T22:54:16.347Z,96741.69
2022-12-19T22:56:43.272Z,96755.75
2022-12-19T22:59:12.026Z,96753.34
2022-12-19T23:01:41.663Z,96736.09
2022-12-19T23:04:11.572Z,96745.09
2022-12-19T23:06:39.241Z,96744.94
2022-12-19T23:09:08.525Z,96728.59
2022-12-19T23:11:38.892Z,96738.34
2022-12-19T23:14:08.120Z,96742.50
2022-12-19T23:16:35.335Z,96736.31
2022-12-19T23:19:02.789Z,96751.31
2022-12-19T23:21:29.801Z,96726.56
2022-12-19T23:23:56.991Z,96731.25
2022-12-19T23:26:29.743Z,96734.44
2022-12-19T23:29:02.292Z,96714.19
2022-12-19T23:31:30.037Z,96744.00
2022-12-19T23:33:57.934Z,96726.56
2022-12-19T23:37:00.349Z,96733.31
2022-12-19T23:39:12.859Z,96724.91
2022-12-19T23:41:40.362Z,96723.22
2022-12-19T23:44:08.746Z,96735.00
2022-12-19T23:46:35.988Z,96730.13
2022-12-19T23:49:03.273Z,96738.38
2022-12-19T23:51:30.543Z,96730.50
2022-12-19T23:53:57.798Z,96720.41
2022-12-19T23:56:27.692Z,96728.25
2022-12-19T23:58:55.274Z,96740.25
